Time;durP1;ratioP1;P1;durP2;ratioP2;P2;SDS_P1;SDS_P2;PMS_P1;PMS_P2;Temp;Humidity;BMP_temperature;BMP_pressure;BME280_temperature;BME280_humidity;BME280_pressure;Samples;Min_cycle;Max_cycle;Signal;HPM_P1;HPM_P2
2022/08/09 00:00:08;;;;;;;2.20;1.45;;;24.30;71.80;;;;;;5053454;28;20029;-58
2022/08/09 00:02:34;;;;;;;4.15;1.30;;;24.20;71.80;;;;;;5052751;28;20021;-57
2022/08/09 00:05:01;;;;;;;4.63;1.20;;;24.20;71.80;;;;;;5052797;28;20390;-58
2022/08/09 00:07:26;;;;;;;2.97;1.50;;;24.20;71.90;;;;;;5053039;28;20025;-58
2022/08/09 00:09:52;;;;;;;2.47;1.33;;;24.20;71.90;;;;;;5051526;28;20066;-58
2022/08/09 00:12:18;;;;;;;1.95;1.67;;;24.10;71.70;;;;;;5052759;28;20021;-58
2022/08/09 00:14:44;;;;;;;3.38;1.50;;;24.10;71.70;;;;;;5052687;28;20079;-58
2022/08/09 00:17:09;;;;;;;2.22;1.45;;;24.10;72.00;;;;;;5052644;28;20393;-58
2022/08/09 00:19:35;;;;;;;2.40;1.50;;;24.10;71.90;;;;;;5052709;28;20032;-58
2022/08/09 00:22:02;;;;;;;2.92;1.58;;;24.00;72.00;;;;;;5052384;28;20504;-58
2022/08/09 00:24:30;;;;;;;1.75;1.50;;;24.00;72.00;;;;;;5051596;28;20371;-57
2022/08/09 00:26:56;;;;;;;3.30;1.55;;;24.00;72.20;;;;;;5052935;28;20478;-58
2022/08/09 00:29:22;;;;;;;4.70;1.70;;;24.00;72.20;;;;;;5052487;28;20075;-58
2022/08/09 00:31:48;;;;;;;2.10;1.75;;;23.90;72.20;;;;;;5051567;28;20504;-58
2022/08/09 00:34:14;;;;;;;6.57;2.20;;;23.90;72.10;;;;;;5052026;28;20073;-58
2022/08/09 00:36:40;;;;;;;4.00;1.63;;;23.80;72.10;;;;;;5051957;28;20082;-58
2022/08/09 00:39:07;;;;;;;3.60;1.73;;;23.80;72.50;;;;;;5051362;28;20039;-58
2022/08/09 00:41:32;;;;;;;4.22;1.80;;;23.80;72.30;;;;;;5052416;28;20090;-58
2022/08/09 00:43:58;;;;;;;3.47;1.92;;;23.70;72.10;;;;;;5052119;28;20036;-57
2022/08/09 00:46:24;;;;;;;3.22;2.17;;;23.80;72.20;;;;;;5052055;28;20039;-57
2022/08/09 00:48:50;;;;;;;3.70;1.92;;;23.70;72.30;;;;;;5051683;28;20017;-58
2022/08/09 00:51:16;;;;;;;2.65;1.95;;;23.70;72.30;;;;;;5052100;28;20677;-58
2022/08/09 00:53:44;;;;;;;4.50;2.20;;;23.70;72.60;;;;;;5052394;28;20028;-57
2022/08/09 00:56:10;;;;;;;4.32;2.05;;;23.60;72.70;;;;;;5052001;28;20033;-58
2022/08/09 00:58:35;;;;;;;3.45;2.00;;;23.60;72.50;;;;;;5052098;28;20096;-58
2022/08/09 01:01:08;;;;;;;3.92;2.03;;;23.50;72.60;;;;;;5052027;28;20036;-58
2022/08/09 01:03:33;;;;;;;3.25;2.20;;;23.50;72.90;;;;;;5051752;28;20108;-58
2022/08/09 01:06:10;;;;;;;2.50;2.30;;;23.50;72.90;;;;;;5052014;28;20111;-57
2022/08/09 01:08:51;;;;;;;3.83;2.22;;;23.40;72.90;;;;;;5052356;28;20022;-58
2022/08/09 01:11:22;;;;;;;4.32;2.40;;;23.40;73.20;;;;;;5052032;28;20032;-58
2022/08/09 01:14:19;;;;;;;3.40;2.40;;;23.40;73.00;;;;;;5051863;28;20029;-57
2022/08/09 01:16:47;;;;;;;3.15;2.30;;;23.30;73.40;;;;;;5051790;28;20039;-57
2022/08/09 01:19:30;;;;;;;3.03;2.17;;;23.30;73.30;;;;;;5051580;28;20390;-57
2022/08/09 01:22:21;;;;;;;5.50;2.40;;;23.30;73.30;;;;;;5052299;28;20029;-58
2022/08/09 01:25:11;;;;;;;5.68;2.20;;;23.20;73.60;;;;;;5052063;28;20029;-58
2022/08/09 01:27:39;;;;;;;5.22;2.45;;;23.20;74.00;;;;;;5051925;28;20021;-58
2022/08/09 01:30:07;;;;;;;3.47;2.60;;;23.10;74.20;;;;;;5051947;28;20021;-57
2022/08/09 01:32:37;;;;;;;2.92;2.60;;;23.10;74.50;;;;;;5051430;28;20033;-57
2022/08/09 01:35:25;;;;;;;4.65;2.65;;;23.00;74.30;;;;;;5052141;28;20095;-57
2022/08/09 01:37:54;;;;;;;2.70;2.50;;;22.90;74.60;;;;;;5055897;28;20509;-58
2022/08/09 01:40:23;;;;;;;2.72;2.30;;;22.90;74.30;;;;;;5055651;28;20033;-57
2022/08/09 01:42:49;;;;;;;5.20;2.50;;;22.80;75.20;;;;;;5054179;28;20115;-58
2022/08/09 01:45:17;;;;;;;2.63;2.42;;;22.80;75.00;;;;;;5055534;28;20052;-58
2022/08/09 01:47:44;;;;;;;2.90;2.60;;;22.80;75.20;;;;;;5055184;28;20075;-57
2022/08/09 01:50:11;;;;;;;4.53;2.70;;;22.70;75.60;;;;;;5055913;28;20017;-58
2022/08/09 01:52:37;;;;;;;3.20;2.72;;;22.60;75.80;;;;;;5055551;28;20042;-58
2022/08/09 01:55:05;;;;;;;4.78;2.70;;;22.60;75.70;;;;;;5055132;28;20482;-57
2022/08/09 01:57:41;;;;;;;3.47;2.90;;;22.60;75.30;;;;;;5055563;28;20099;-58
2022/08/09 02:00:09;;;;;;;4.88;3.10;;;22.60;75.80;;;;;;5055274;28;20059;-57
2022/08/09 02:02:38;;;;;;;4.28;2.90;;;22.50;75.80;;;;;;5054970;28;20045;-58
2022/08/09 02:05:08;;;;;;;3.30;2.90;;;22.50;75.50;;;;;;5055665;28;20032;-58
2022/08/09 02:07:36;;;;;;;5.13;2.83;;;22.50;75.60;;;;;;5055151;28;20033;-57
2022/08/09 02:10:10;;;;;;;3.45;3.15;;;22.40;75.50;;;;;;5055212;28;20025;-58
2022/08/09 02:12:37;;;;;;;4.75;2.90;;;22.30;75.10;;;;;;5054920;28;20033;-58
2022/08/09 02:15:05;;;;;;;3.25;2.90;;;22.30;76.20;;;;;;5054908;28;20072;-58
2022/08/09 02:17:33;;;;;;;4.20;3.20;;;22.20;76.40;;;;;;5055029;28;20048;-57
2022/08/09 02:19:59;;;;;;;3.30;3.00;;;22.20;76.40;;;;;;5055194;28;20561;-58
2022/08/09 02:22:40;;;;;;;4.43;2.70;;;22.10;75.80;;;;;;5054857;28;20040;-57
2022/08/09 02:25:19;;;;;;;5.95;3.30;;;22.10;76.60;;;;;;5054748;28;20455;-58
2022/08/09 02:28:00;;;;;;;3.60;3.28;;;22.00;77.40;;;;;;5054725;28;20021;-57
2022/08/09 02:30:31;;;;;;;3.75;2.70;;;21.90;77.30;;;;;;5053559;28;20029;-58
2022/08/09 02:32:58;;;;;;;3.28;2.90;;;21.90;77.40;;;;;;5054539;28;20052;-58
2022/08/09 02:35:26;;;;;;;4.25;2.80;;;21.80;78.70;;;;;;5054939;28;20397;-58
2022/08/09 02:37:57;;;;;;;7.03;2.80;;;21.80;78.10;;;;;;5053241;28;20025;-58
2022/08/09 02:40:24;;;;;;;3.60;2.90;;;21.60;79.60;;;;;;5054548;28;20490;-58
2022/08/09 02:42:52;;;;;;;3.38;2.75;;;21.60;79.40;;;;;;5054566;28;20029;-58
2022/08/09 02:45:28;;;;;;;4.00;2.90;;;21.60;79.40;;;;;;5053869;28;20040;-58
2022/08/09 02:47:57;;;;;;;3.10;2.80;;;21.50;80.00;;;;;;5053937;28;20389;-58
2022/08/09 02:50:37;;;;;;;4.47;2.80;;;21.40;79.60;;;;;;5054278;28;20063;-58
2022/08/09 02:53:11;;;;;;;5.25;3.30;;;21.30;80.30;;;;;;5054264;28;20029;-58
2022/08/09 02:55:39;;;;;;;3.30;3.00;;;21.20;81.40;;;;;;5054215;28;20067;-58
2022/08/09 02:58:08;;;;;;;4.70;3.05;;;21.20;80.00;;;;;;5053175;28;20029;-58
2022/08/09 03:00:35;;;;;;;4.53;3.28;;;21.20;81.50;;;;;;5053809;28;20028;-58
2022/08/09 03:03:02;;;;;;;3.95;3.40;;;21.10;82.20;;;;;;5054330;28;20086;-58
2022/08/09 03:05:29;;;;;;;3.50;3.20;;;20.90;83.00;;;;;;5052752;28;20056;-58
2022/08/09 03:07:56;;;;;;;4.05;3.25;;;20.80;83.30;;;;;;5054154;28;20046;-58
2022/08/09 03:10:24;;;;;;;4.30;3.55;;;20.80;82.80;;;;;;5053787;28;20028;-58
2022/08/09 03:12:50;;;;;;;3.95;3.65;;;20.80;83.40;;;;;;5053892;28;20056;-58
2022/08/09 03:15:17;;;;;;;3.63;3.33;;;20.70;82.30;;;;;;5054007;28;20416;-58
2022/08/09 03:17:43;;;;;;;7.38;3.67;;;20.70;83.10;;;;;;5053847;28;20017;-58
2022/08/09 03:20:11;;;;;;;4.40;3.65;;;20.60;84.00;;;;;;5053895;28;20489;-58
2022/08/09 03:22:39;;;;;;;4.30;3.58;;;20.50;84.20;;;;;;5053714;28;20064;-58
2022/08/09 03:25:07;;;;;;;3.97;3.55;;;20.50;83.70;;;;;;5053918;28;20037;-58
2022/08/09 03:27:34;;;;;;;4.15;3.72;;;20.40;83.60;;;;;;5053875;28;20096;-58
2022/08/09 03:30:01;;;;;;;5.85;3.85;;;20.50;83.10;;;;;;5053323;28;20029;-58
2022/08/09 03:32:29;;;;;;;7.13;4.00;;;20.30;83.70;;;;;;5053548;28;20025;-57
2022/08/09 03:34:55;;;;;;;4.75;3.97;;;20.40;83.20;;;;;;5053707;28;20112;-58
2022/08/09 03:37:21;;;;;;;4.15;3.60;;;20.40;83.40;;;;;;5053454;28;20040;-58
2022/08/09 03:39:47;;;;;;;4.93;3.67;;;20.40;83.40;;;;;;5053154;28;20114;-58
2022/08/09 03:42:13;;;;;;;5.25;3.65;;;20.40;83.60;;;;;;5052077;28;20029;-57
2022/08/09 03:44:39;;;;;;;5.20;3.63;;;20.40;83.70;;;;;;5051763;28;20052;-58
2022/08/09 03:47:05;;;;;;;3.92;3.50;;;20.40;83.20;;;;;;5053375;28;20106;-57
2022/08/09 03:49:32;;;;;;;4.18;3.55;;;20.40;82.60;;;;;;5053174;28;20028;-58
2022/08/09 03:51:59;;;;;;;4.38;3.05;;;20.40;82.70;;;;;;5053309;28;20021;-58
2022/08/09 03:54:30;;;;;;;6.82;3.40;;;20.40;82.50;;;;;;5052808;28;20032;-58
2022/08/09 03:57:01;;;;;;;6.35;3.58;;;20.40;82.80;;;;;;5053179;28;20112;-58
2022/08/09 03:59:27;;;;;;;4.75;3.10;;;20.40;82.60;;;;;;5053121;28;20079;-58
2022/08/09 04:01:55;;;;;;;3.35;3.03;;;20.40;82.40;;;;;;5052838;28;20033;-58
2022/08/09 04:04:21;;;;;;;4.45;3.15;;;20.40;82.40;;;;;;5052706;28;20047;-58
2022/08/09 04:06:47;;;;;;;3.40;3.10;;;20.40;82.30;;;;;;5052880;28;20489;-57
2022/08/09 04:09:12;;;;;;;3.45;2.92;;;20.40;82.20;;;;;;5053089;28;20021;-58
2022/08/09 04:12:10;;;;;;;4.25;3.33;;;20.40;82.20;;;;;;5051381;28;20393;-58
2022/08/09 04:14:37;;;;;;;6.18;3.22;;;20.40;82.50;;;;;;5052705;28;20119;-57
2022/08/09 04:17:03;;;;;;;7.90;2.90;;;20.40;82.30;;;;;;5052542;28;20040;-58
2022/08/09 04:19:29;;;;;;;7.18;2.88;;;20.50;82.20;;;;;;5052491;28;20048;-57
2022/08/09 04:21:55;;;;;;;7.38;2.85;;;20.50;82.00;;;;;;5052914;28;20031;-57
2022/08/09 04:24:20;;;;;;;3.97;2.70;;;20.40;82.10;;;;;;5052207;28;20029;-58
2022/08/09 04:26:46;;;;;;;3.42;2.70;;;20.40;82.40;;;;;;5052282;28;20512;-58
2022/08/09 04:29:12;;;;;;;4.80;3.30;;;20.40;82.40;;;;;;5052704;28;20075;-57
2022/08/09 04:31:37;;;;;;;3.95;2.90;;;20.30;83.50;;;;;;5052590;28;20565;-58
2022/08/09 04:34:03;;;;;;;3.00;2.70;;;20.20;83.10;;;;;;5052595;28;20516;-58
2022/08/09 04:36:31;;;;;;;4.45;3.00;;;20.30;82.90;;;;;;5052161;28;20544;-58
2022/08/09 04:38:59;;;;;;;5.15;3.22;;;20.20;84.50;;;;;;5051879;28;20028;-57
2022/08/09 04:41:25;;;;;;;3.00;2.72;;;20.10;84.60;;;;;;5052212;28;20025;-58
2022/08/09 04:43:52;;;;;;;5.30;2.70;;;20.00;84.50;;;;;;5052000;28;20406;-58
2022/08/09 04:46:17;;;;;;;5.93;2.70;;;19.90;84.90;;;;;;5052033;28;20033;-58
2022/08/09 04:48:43;;;;;;;5.07;2.78;;;19.90;85.10;;;;;;5051969;28;20032;-58
2022/08/09 04:51:09;;;;;;;7.50;2.90;;;19.80;85.50;;;;;;5052547;28;20100;-58
2022/08/09 04:53:35;;;;;;;7.90;3.20;;;19.90;84.90;;;;;;5051872;28;20047;-57
2022/08/09 04:56:01;;;;;;;4.03;3.00;;;19.90;85.10;;;;;;5051710;28;20490;-57
2022/08/09 04:58:27;;;;;;;5.95;3.47;;;20.00;85.50;;;;;;5051934;28;20084;-58
2022/08/09 05:00:53;;;;;;;6.75;3.17;;;19.80;86.10;;;;;;5052268;28;20021;-57
2022/08/09 05:03:18;;;;;;;4.75;3.25;;;19.60;87.10;;;;;;5052099;28;20028;-58
2022/08/09 05:05:44;;;;;;;6.47;3.05;;;19.60;87.10;;;;;;5052137;28;20041;-58
2022/08/09 05:08:10;;;;;;;3.53;3.10;;;19.70;87.10;;;;;;5051895;28;20032;-58
2022/08/09 05:10:36;;;;;;;4.70;3.35;;;19.80;86.20;;;;;;5051362;28;20028;-58
2022/08/09 05:13:01;;;;;;;9.05;3.83;;;19.80;87.40;;;;;;5051797;28;20029;-57
2022/08/09 05:15:27;;;;;;;6.13;2.95;;;19.70;87.30;;;;;;5051868;28;20465;-57
2022/08/09 05:17:53;;;;;;;6.90;3.35;;;19.80;87.00;;;;;;5051878;28;20029;-57
2022/08/09 05:20:19;;;;;;;5.05;3.10;;;19.70;87.40;;;;;;5051792;28;20100;-57
2022/08/09 05:22:45;;;;;;;6.03;3.05;;;19.70;87.30;;;;;;5051637;28;20104;-58
2022/08/09 05:25:11;;;;;;;5.57;3.08;;;19.80;86.30;;;;;;5051347;28;20104;-58
2022/08/09 05:27:37;;;;;;;4.95;3.08;;;19.70;87.90;;;;;;5051682;28;20029;-58
2022/08/09 05:30:03;;;;;;;6.00;3.13;;;19.70;88.10;;;;;;5052103;28;20074;-58
2022/08/09 05:32:29;;;;;;;10.68;3.10;;;19.70;87.60;;;;;;5051579;28;20028;-58
2022/08/09 05:34:54;;;;;;;6.63;3.22;;;19.80;88.10;;;;;;5051446;28;20090;-58
2022/08/09 05:37:20;;;;;;;11.15;3.42;;;19.70;89.40;;;;;;5051676;28;20418;-58
2022/08/09 05:39:46;;;;;;;7.57;3.30;;;19.70;90.20;;;;;;5051062;28;20450;-58
2022/08/09 05:42:14;;;;;;;7.90;3.33;;;19.70;89.50;;;;;;5051374;28;20032;-57
2022/08/09 05:44:40;;;;;;;5.93;3.33;;;19.70;90.00;;;;;;5051615;28;20416;-60
2022/08/09 05:47:05;;;;;;;3.80;2.80;;;19.70;89.60;;;;;;5051472;28;20071;-57
2022/08/09 05:49:32;;;;;;;7.43;3.60;;;19.70;87.50;;;;;;5051242;28;20049;-58
2022/08/09 05:51:58;;;;;;;7.05;3.20;;;19.70;90.30;;;;;;5051480;28;20096;-57
2022/08/09 05:54:23;;;;;;;6.22;3.55;;;19.80;89.60;;;;;;5050958;28;20885;-58
2022/08/09 05:56:49;;;;;;;5.80;3.22;;;19.90;90.30;;;;;;5051370;28;20087;-58
2022/08/09 05:59:14;;;;;;;5.13;3.22;;;19.80;90.40;;;;;;5051451;28;20389;-58
2022/08/09 06:01:41;;;;;;;8.40;3.35;;;19.60;91.10;;;;;;5049976;28;20115;-58
2022/08/09 06:04:07;;;;;;;6.07;3.22;;;19.70;91.30;;;;;;5050990;28;20523;-58
2022/08/09 06:06:33;;;;;;;10.27;3.70;;;19.70;91.30;;;;;;5051713;28;20039;-58
2022/08/09 06:08:59;;;;;;;11.52;4.30;;;19.80;91.40;;;;;;5051055;28;20025;-58
2022/08/09 06:11:24;;;;;;;9.60;3.80;;;19.80;91.30;;;;;;5051254;28;20044;-58
2022/08/09 06:13:50;;;;;;;6.55;3.97;;;19.80;91.00;;;;;;5051102;28;20386;-58
2022/08/09 06:16:16;;;;;;;10.35;3.60;;;19.90;90.50;;;;;;5051026;28;20055;-57
2022/08/09 06:18:42;;;;;;;8.00;3.90;;;20.00;89.80;;;;;;5051422;28;20040;-58
2022/08/09 06:21:08;;;;;;;6.35;3.20;;;20.20;90.70;;;;;;5051187;28;20048;-57
2022/08/09 06:23:34;;;;;;;9.35;3.90;;;20.30;90.60;;;;;;5053046;28;20375;-60
2022/08/09 06:25:59;;;;;;;12.73;4.15;;;20.30;89.20;;;;;;5054764;28;20100;-57
2022/08/09 06:28:25;;;;;;;12.05;4.10;;;20.40;89.20;;;;;;5054656;28;20505;-58
2022/08/09 06:30:51;;;;;;;5.85;3.60;;;20.40;88.50;;;;;;5054584;28;20071;-58
2022/08/09 06:33:16;;;;;;;8.27;3.30;;;20.40;89.40;;;;;;5054471;28;20025;-58
2022/08/09 06:35:42;;;;;;;10.27;4.25;;;20.40;88.90;;;;;;5054780;28;20440;-57
2022/08/09 06:38:08;;;;;;;6.85;3.80;;;20.50;90.00;;;;;;5053869;28;20234;-57
2022/08/09 06:40:34;;;;;;;8.25;3.92;;;20.70;90.40;;;;;;5054398;28;20032;-57
2022/08/09 06:43:00;;;;;;;5.60;3.92;;;21.00;88.60;;;;;;5054131;28;20045;-57
2022/08/09 06:45:26;;;;;;;9.90;4.32;;;21.20;90.10;;;;;;5054688;28;20485;-58
2022/08/09 06:47:52;;;;;;;4.43;3.60;;;21.50;90.10;;;;;;5054199;28;20032;-58
2022/08/09 06:50:18;;;;;;;12.00;4.00;;;21.90;88.60;;;;;;5054269;28;20025;-57
2022/08/09 06:52:46;;;;;;;6.85;4.03;;;22.30;88.20;;;;;;5054009;28;20037;-58
2022/08/09 06:55:19;;;;;;;8.68;3.45;;;22.80;87.30;;;;;;5054519;28;20035;-58
2022/08/09 06:57:44;;;;;;;6.93;3.65;;;23.30;87.00;;;;;;5054042;28;20040;-58
2022/08/09 07:00:11;;;;;;;9.55;3.67;;;23.80;86.00;;;;;;5054010;28;20450;-58
2022/08/09 07:02:37;;;;;;;9.38;3.13;;;24.40;83.40;;;;;;5053761;28;20568;-58
2022/08/09 07:05:03;;;;;;;5.47;2.90;;;24.90;82.60;;;;;;5054450;28;20454;-58
2022/08/09 07:07:30;;;;;;;6.43;2.83;;;25.40;80.10;;;;;;5053547;28;20028;-57
2022/08/09 07:09:56;;;;;;;6.70;3.00;;;25.80;79.00;;;;;;5053913;28;20057;-57
2022/08/09 07:12:21;;;;;;;6.93;2.85;;;26.20;78.10;;;;;;5053923;28;20057;-57
2022/08/09 07:14:48;;;;;;;5.45;2.58;;;26.50;75.50;;;;;;5053807;28;20486;-58
2022/08/09 07:17:14;;;;;;;7.57;2.67;;;27.00;74.20;;;;;;5053356;28;20536;-57
2022/08/09 07:19:40;;;;;;;4.70;2.38;;;27.20;73.00;;;;;;5053730;28;20041;-57
2022/08/09 07:22:06;;;;;;;4.95;2.45;;;27.40;72.00;;;;;;5053414;28;20072;-57
2022/08/09 07:24:32;;;;;;;4.80;1.90;;;27.70;71.70;;;;;;5053463;28;20481;-57
2022/08/09 07:26:59;;;;;;;3.90;2.03;;;28.10;71.30;;;;;;5053449;28;20033;-57
2022/08/09 07:29:26;;;;;;;4.30;1.80;;;28.40;70.10;;;;;;5053855;28;20413;-58
2022/08/09 07:31:52;;;;;;;5.47;1.88;;;28.60;69.10;;;;;;5053247;28;20037;-58
2022/08/09 07:34:18;;;;;;;4.57;1.90;;;28.70;69.10;;;;;;5052777;28;20021;-57
2022/08/09 07:36:44;;;;;;;4.80;1.92;;;29.00;68.40;;;;;;5053411;28;20098;-57
2022/08/09 07:39:10;;;;;;;5.90;1.67;;;29.10;68.50;;;;;;5053124;28;20444;-57
2022/08/09 07:41:36;;;;;;;4.80;1.63;;;29.20;67.20;;;;;;5051987;28;20133;-58
2022/08/09 07:44:02;;;;;;;4.28;1.50;;;29.20;67.70;;;;;;5053356;28;20127;-57
2022/08/09 07:46:28;;;;;;;2.70;1.60;;;29.50;68.20;;;;;;5052755;28;20436;-58
2022/08/09 07:48:54;;;;;;;5.28;1.60;;;29.40;67.80;;;;;;5052949;28;20101;-58
2022/08/09 07:51:20;;;;;;;5.85;1.70;;;29.50;67.80;;;;;;5052990;28;20036;-57
2022/08/09 07:53:47;;;;;;;6.50;1.95;;;29.80;67.80;;;;;;5052891;28;20029;-57
2022/08/09 07:56:12;;;;;;;5.97;1.90;;;29.90;68.30;;;;;;5052833;28;20498;-58
2022/08/09 07:58:38;;;;;;;3.30;1.70;;;30.20;67.00;;;;;;5053355;28;20023;-58
2022/08/09 08:01:05;;;;;;;3.85;1.60;;;30.30;65.90;;;;;;5052689;28;20464;-58
2022/08/09 08:03:30;;;;;;;4.45;1.50;;;30.60;65.70;;;;;;5051434;28;20389;-58
2022/08/09 08:05:56;;;;;;;4.20;1.60;;;30.60;64.90;;;;;;5052878;28;20028;-58
2022/08/09 08:08:23;;;;;;;2.78;1.65;;;30.90;65.10;;;;;;5052711;28;20032;-58
2022/08/09 08:10:49;;;;;;;4.72;1.63;;;31.10;64.40;;;;;;5052639;28;20056;-58
2022/08/09 08:13:14;;;;;;;3.30;1.20;;;31.30;64.80;;;;;;5052638;28;20056;-58
2022/08/09 08:15:40;;;;;;;3.63;1.40;;;31.20;64.50;;;;;;5052270;28;20494;-58
2022/08/09 08:18:06;;;;;;;6.75;1.65;;;31.30;64.30;;;;;;5052547;28;20025;-58
2022/08/09 08:20:32;;;;;;;4.57;1.70;;;31.40;64.10;;;;;;5052235;28;20478;-58
2022/08/09 08:22:59;;;;;;;5.25;1.50;;;31.60;64.80;;;;;;5052447;28;20485;-58
2022/08/09 08:25:25;;;;;;;3.05;1.38;;;31.70;64.60;;;;;;5052283;28;20043;-58
2022/08/09 08:27:50;;;;;;;2.47;1.40;;;31.80;64.30;;;;;;5052745;28;20414;-59
2022/08/09 08:30:19;;;;;;;3.00;1.33;;;31.80;63.70;;;;;;5052158;28;20083;-59
2022/08/09 08:32:45;;;;;;;3.55;1.40;;;31.90;63.50;;;;;;5052241;28;20494;-59
2022/08/09 08:35:10;;;;;;;2.63;1.33;;;32.30;64.00;;;;;;5052236;28;20135;-58
2022/08/09 08:37:36;;;;;;;4.15;1.40;;;32.70;63.50;;;;;;5052543;28;20458;-59
2022/08/09 08:40:06;;;;;;;5.53;1.50;;;32.60;62.50;;;;;;5052112;28;20025;-59
2022/08/09 08:42:32;;;;;;;3.65;1.10;;;32.60;62.20;;;;;;5051981;28;20060;-58
2022/08/09 08:45:00;;;;;;;2.72;1.30;;;32.80;62.20;;;;;;5051372;28;20080;-59
2022/08/09 08:47:27;;;;;;;2.95;1.40;;;32.90;60.90;;;;;;5051837;28;20394;-58
2022/08/09 08:49:54;;;;;;;4.25;1.20;;;33.30;61.80;;;;;;5051966;28;20025;-59
2022/08/09 08:52:26;;;;;;;2.35;1.27;;;33.50;60.70;;;;;;5051914;28;20025;-59
2022/08/09 08:54:56;;;;;;;4.60;1.33;;;33.50;60.40;;;;;;5051718;28;20043;-59
2022/08/09 08:57:24;;;;;;;2.90;1.30;;;33.60;60.80;;;;;;5050698;28;20371;-59
2022/08/09 08:59:51;;;;;;;4.18;1.50;;;33.80;60.20;;;;;;5051820;28;20037;-58
2022/08/09 09:02:25;;;;;;;4.03;1.27;;;34.10;60.40;;;;;;5051627;28;20142;-59
2022/08/09 09:04:53;;;;;;;2.33;1.25;;;34.30;59.10;;;;;;5052269;28;20028;-59
2022/08/09 09:07:20;;;;;;;5.18;1.25;;;34.20;59.20;;;;;;5052090;28;20027;-59
2022/08/09 09:09:51;;;;;;;4.00;1.30;;;34.30;59.10;;;;;;5051676;28;20047;-58
2022/08/09 09:12:20;;;;;;;3.00;1.23;;;34.40;58.90;;;;;;5051753;28;20033;-58
2022/08/09 09:14:47;;;;;;;2.92;1.17;;;34.50;59.00;;;;;;5051517;28;20547;-58
2022/08/09 09:17:13;;;;;;;4.47;1.30;;;34.80;58.80;;;;;;5051369;28;20044;-59
2022/08/09 09:19:39;;;;;;;4.43;1.50;;;34.90;58.50;;;;;;5052152;28;20096;-58
2022/08/09 09:22:12;;;;;;;4.93;1.40;;;35.00;58.90;;;;;;5051711;28;20115;-59
2022/08/09 09:24:54;;;;;;;3.42;1.30;;;35.10;58.40;;;;;;5051621;28;20378;-59
2022/08/09 09:27:26;;;;;;;4.10;1.10;;;35.20;58.60;;;;;;5051483;28;20040;-58
2022/08/09 09:29:55;;;;;;;2.80;1.20;;;35.30;58.60;;;;;;5051688;28;20029;-58
2022/08/09 09:32:28;;;;;;;4.15;1.40;;;35.80;57.80;;;;;;5051517;28;20024;-59
2022/08/09 09:35:04;;;;;;;4.78;1.35;;;36.10;57.40;;;;;;5051374;28;20094;-59
2022/08/09 09:37:29;;;;;;;4.72;1.33;;;36.00;57.90;;;;;;5051366;28;20025;-59
2022/08/09 09:39:55;;;;;;;3.25;1.35;;;36.30;58.50;;;;;;5051997;28;20075;-59
2022/08/09 09:42:28;;;;;;;2.20;1.40;;;36.10;57.00;;;;;;5051520;28;20029;-59
2022/08/09 09:45:02;;;;;;;6.38;1.23;;;36.10;56.80;;;;;;5051230;28;20049;-59
2022/08/09 09:47:28;;;;;;;3.08;1.40;;;36.00;56.10;;;;;;5051196;28;20048;-58
2022/08/09 09:49:56;;;;;;;4.03;1.70;;;36.40;57.30;;;;;;5051392;28;20022;-59
2022/08/09 09:52:23;;;;;;;3.30;1.40;;;36.50;57.20;;;;;;5051748;28;20403;-58
2022/08/09 09:54:49;;;;;;;2.75;1.30;;;36.40;56.60;;;;;;5051429;28;20104;-59
2022/08/09 09:57:21;;;;;;;2.97;1.33;;;36.50;55.90;;;;;;5053390;28;20434;-59
2022/08/09 09:59:49;;;;;;;3.88;1.10;;;36.40;56.10;;;;;;5055163;28;20027;-58
2022/08/09 10:02:17;;;;;;;3.92;1.40;;;36.80;56.70;;;;;;5054920;28;20040;-59
2022/08/09 10:04:45;;;;;;;1.42;1.10;;;36.90;55.40;;;;;;5055423;28;20025;-59
2022/08/09 10:07:25;;;;;;;3.28;1.30;;;36.70;54.30;;;;;;5055134;28;20104;-59
2022/08/09 10:09:54;;;;;;;4.82;1.30;;;36.70;54.30;;;;;;5055151;28;20040;-58
2022/08/09 10:12:52;;;;;;;3.33;1.20;;;36.70;54.20;;;;;;5054770;28;20029;-59
2022/08/09 10:15:17;;;;;;;5.00;1.30;;;36.70;54.60;;;;;;5054280;28;20033;-58
2022/08/09 10:17:45;;;;;;;3.92;1.48;;;36.40;54.30;;;;;;5054831;28;20486;-59
2022/08/09 10:20:20;;;;;;;3.42;1.20;;;36.30;54.50;;;;;;5054885;28;20047;-58
2022/08/09 10:22:47;;;;;;;2.85;1.27;;;36.70;54.20;;;;;;5055083;28;20029;-59
2022/08/09 10:25:14;;;;;;;2.00;1.20;;;36.60;54.30;;;;;;5054461;28;20478;-59
2022/08/09 10:27:44;;;;;;;4.07;1.20;;;36.10;54.80;;;;;;5054520;28;20033;-59
2022/08/09 10:30:11;;;;;;;4.03;1.30;;;36.30;52.90;;;;;;5054250;28;20021;-59
2022/08/09 10:32:37;;;;;;;2.17;0.95;;;36.00;53.40;;;;;;5054542;28;20394;-59
2022/08/09 10:35:04;;;;;;;3.47;1.40;;;35.90;53.80;;;;;;5054559;28;20033;-59
2022/08/09 10:37:31;;;;;;;3.33;1.00;;;35.90;54.60;;;;;;5054430;28;20021;-58
2022/08/09 10:39:58;;;;;;;2.30;1.02;;;35.60;54.00;;;;;;5054695;28;20479;-59
2022/08/09 10:42:23;;;;;;;5.95;1.20;;;35.60;53.90;;;;;;5054436;28;20040;-59
2022/08/09 10:44:56;;;;;;;4.25;1.17;;;35.40;53.00;;;;;;5053815;28;20049;-59
2022/08/09 10:47:36;;;;;;;3.15;1.20;;;34.90;52.70;;;;;;5054345;28;20021;-59
2022/08/09 10:50:17;;;;;;;3.80;1.10;;;34.80;53.40;;;;;;5054598;28;20043;-59
2022/08/09 10:52:49;;;;;;;6.35;1.20;;;34.70;53.00;;;;;;5054285;28;20025;-58
2022/08/09 10:55:24;;;;;;;2.80;1.35;;;34.60;53.20;;;;;;5053815;28;20132;-59
2022/08/09 10:57:50;;;;;;;3.25;1.25;;;34.60;55.10;;;;;;5053847;28;20021;-57
2022/08/09 11:00:42;;;;;;;3.22;1.08;;;34.80;53.00;;;;;;5053921;28;20033;-59
2022/08/09 11:03:20;;;;;;;2.70;1.10;;;34.30;53.00;;;;;;5051472;28;20486;-58
2022/08/09 11:06:17;;;;;;;7.38;1.20;;;34.40;53.30;;;;;;5053891;28;20029;-58
2022/08/09 11:08:45;;;;;;;1.85;1.10;;;34.40;53.50;;;;;;5052816;28;20108;-59
2022/08/09 11:11:11;;;;;;;1.38;1.20;;;34.50;52.60;;;;;;5054090;28;20080;-58
2022/08/09 11:13:37;;;;;;;3.55;1.45;;;34.40;52.40;;;;;;5053248;28;20025;-58
2022/08/09 11:16:31;;;;;;;2.33;1.02;;;34.30;52.40;;;;;;5053670;28;20043;-58
2022/08/09 11:18:57;;;;;;;4.25;1.10;;;34.30;52.50;;;;;;5053659;28;20056;-58
2022/08/09 11:21:52;;;;;;;2.05;1.10;;;34.40;52.40;;;;;;5053762;28;20060;-58
2022/08/09 11:24:20;;;;;;;6.10;1.27;;;34.30;52.40;;;;;;5053454;28;20032;-58
2022/08/09 11:26:49;;;;;;;2.22;1.30;;;34.50;51.60;;;;;;5053191;28;20143;-58
2022/08/09 11:29:53;;;;;;;1.30;1.00;;;34.30;51.70;;;;;;5053532;28;20017;-58
2022/08/09 11:32:40;;;;;;;4.65;1.20;;;34.50;52.20;;;;;;5053287;28;20021;-58
2022/08/09 11:35:14;;;;;;;2.55;1.00;;;34.40;52.70;;;;;;5053307;28;20037;-58
2022/08/09 11:37:41;;;;;;;4.20;1.10;;;34.40;52.40;;;;;;5053076;28;20433;-58
2022/08/09 11:40:12;;;;;;;1.52;1.10;;;34.50;52.40;;;;;;5053225;28;20036;-58
2022/08/09 11:42:42;;;;;;;2.20;1.20;;;34.40;51.80;;;;;;5052927;28;20067;-58
2022/08/09 11:45:39;;;;;;;2.63;1.30;;;34.40;52.80;;;;;;5053075;28;20033;-58
2022/08/09 11:48:10;;;;;;;2.25;1.00;;;34.70;52.30;;;;;;5053037;28;20490;-59
2022/08/09 11:50:58;;;;;;;3.00;1.13;;;34.70;52.50;;;;;;5052990;28;20025;-59
2022/08/09 11:53:32;;;;;;;2.97;1.20;;;34.60;53.20;;;;;;5053021;28;20496;-58
2022/08/09 11:56:13;;;;;;;2.30;1.10;;;34.70;52.70;;;;;;5053029;28;20041;-58
2022/08/09 11:58:39;;;;;;;2.15;1.08;;;34.70;53.60;;;;;;5052975;28;20021;-58
2022/08/09 12:01:05;;;;;;;3.95;1.23;;;34.60;52.70;;;;;;5052823;28;20079;-59
2022/08/09 12:03:31;;;;;;;3.08;1.10;;;34.60;51.90;;;;;;5052615;28;20073;-58
2022/08/09 12:06:00;;;;;;;4.40;1.20;;;34.30;52.60;;;;;;5052751;28;20135;-58
2022/08/09 12:08:28;;;;;;;1.35;1.00;;;34.30;52.00;;;;;;5052515;28;20029;-59
2022/08/09 12:10:57;;;;;;;2.65;1.10;;;34.40;51.70;;;;;;5052298;28;20524;-58
2022/08/09 12:13:35;;;;;;;1.98;1.10;;;34.30;51.60;;;;;;5053066;28;20094;-58
2022/08/09 12:16:06;;;;;;;2.60;1.10;;;34.30;52.70;;;;;;5052456;28;20490;-58
2022/08/09 12:18:34;;;;;;;2.40;1.25;;;34.40;53.10;;;;;;5052550;28;20048;-59
2022/08/09 12:21:05;;;;;;;3.85;1.20;;;34.30;52.90;;;;;;5052337;28;20523;-58
2022/08/09 12:23:32;;;;;;;3.03;1.15;;;34.30;52.30;;;;;;5052706;28;20029;-58
2022/08/09 12:25:59;;;;;;;5.13;1.17;;;34.20;51.60;;;;;;5052058;28;20033;-58
2022/08/09 12:28:26;;;;;;;4.63;1.17;;;34.40;51.60;;;;;;5052199;28;20025;-58
2022/08/09 12:30:52;;;;;;;2.50;1.20;;;34.20;51.40;;;;;;5052301;28;20039;-59
2022/08/09 12:33:19;;;;;;;3.10;1.08;;;34.20;52.70;;;;;;5052329;28;20025;-58
2022/08/09 12:35:46;;;;;;;3.40;1.20;;;34.30;52.60;;;;;;5052011;28;20497;-58
2022/08/09 12:38:19;;;;;;;3.50;1.20;;;34.20;52.70;;;;;;5052039;28;20017;-59
2022/08/09 12:40:49;;;;;;;3.00;1.10;;;34.30;52.00;;;;;;5051842;28;20033;-58
2022/08/09 12:43:18;;;;;;;1.40;1.23;;;34.30;52.20;;;;;;5052414;28;20036;-58
2022/08/09 12:45:48;;;;;;;5.28;1.20;;;34.30;52.20;;;;;;5052227;28;20037;-58
2022/08/09 12:48:14;;;;;;;2.20;1.10;;;34.40;52.90;;;;;;5052108;28;20124;-58
2022/08/09 12:50:42;;;;;;;2.63;1.10;;;34.30;52.70;;;;;;5052005;28;20044;-59
2022/08/09 12:53:30;;;;;;;2.13;1.15;;;34.10;52.70;;;;;;5051943;28;20478;-59